• Join FlightAware (Why Join?)
  • Login
  • US Flag 
06:21AM EST


 

Airport Tracker/Info


-or-


 

Live Flight TrackerFlight Track Log ✈ N785JP ✈ 26-Aug-2013 ✈ KGFL - KHPN

Flight Track Log - Related Links

Times and Time Zones

All times are in EDT time to prevent confusion due to time zone crossing. See the N785JP flight status page for this flight to view local times or setup timezone preferences in your user account.

Time Position Orientation Groundspeed Altitude Reporting Facility
EDT Latitude Longitude Course Direction KTS MPH feet Rate Location/Type
11:57AM 43.2611 -73.6261 191° South 152 175 2,800  Level Boston Center
11:58AM 43.2111 -73.6394 191° South 155 178 4,200 1,324 Climbing Boston Center
11:59AM 43.1631 -73.6583 196° South 169 194 5,800 1,323 Climbing Boston Center
12:00PM 43.1211 -73.6717 193° South 164 189 7,000 1,169 Climbing Boston Center
12:01PM 43.0731 -73.6908 196° South 169 194 8,100 1,100 Climbing Boston Center
12:02PM 43.0247 -73.7067 193° South 174 200 9,200 942 Climbing Boston Center
12:03PM 42.9725 -73.7256 195° South 186 214 10,000 393 Climbing Boston Center
12:04PM 42.9119 -73.7469 195° South 209 241 10,000  Level Boston Center
12:05PM 42.8511 -73.7711 196° South 229 264 10,000 353 Level Boston Center
12:06PM 42.7925 -73.7925 195° South 229 264 10,700 787 Climbing Boston Center
12:07PM 42.7361 -73.8111 194° South 217 250 11,600 655 Climbing Boston Center
12:08PM 42.6778 -73.8097 179° South 207 238 12,000 202 Climbing Boston Center
12:09PM 42.6131 -73.8111 181° South 215 247 12,000 -184 Level Boston Center
12:10PM 42.5714 -73.8131 182° South 243 280 11,700 -583 Descending Boston Center
12:11PM 42.4983 -73.8086 177° South 244 281 11,000 -339 Descending Boston Center
12:12PM 42.4339 -73.8128 183° South 233 268 11,000  Level Boston Center
12:13PM 42.3650 -73.8142 181° South 230 265 11,000 -259 Level Boston Center
12:14PM 42.2817 -73.8150 180° South 245 282 10,400 -472 Descending Boston Center
12:15PM 42.2253 -73.8167 181° South 249 287 10,000 -198 Descending Boston Center
12:16PM 42.1483 -73.8150 179° South 256 295 10,000  Level Boston Center
12:17PM 42.0900 -73.7997 169° South 248 285 10,000  Level Boston Center
12:18PM 42.0172 -73.7814 169° South 243 280 10,000  Level Boston Center
12:19PM 41.9572 -73.7522 160° South 235 270 10,000 -397 Level Boston Center
12:20PM 41.8950 -73.7175 157° South 235 270 9,200 -793 Descending Boston Center
12:21PM 41.8331 -73.6800 156° South 248 285 8,400 -744 Descending Boston Center
12:22PM 41.7644 -73.6592 167° South 248 285 7,700 -744 Descending Boston Center
12:23PM 41.6958 -73.6494 174° South 240 276 6,900 -763 Descending Boston Center
12:24PM 41.6292 -73.6372 172° South 240 276 6,200 -312 Descending Boston Center
12:26PM 41.5167 -73.6167 172° South 232 267 6,100 -185 Descending New York TRACON
12:27PM 41.4500 -73.6000 169° South 241 277 5,700 -571 Descending New York TRACON
12:28PM 41.3833 -73.6000 180° South 239 275 4,900 -800 Descending New York TRACON
12:29PM 41.3167 -73.5833 169° South 231 266 4,100 -800 Descending New York TRACON
12:30PM 41.2500 -73.5833 180° South 237 273 3,300 -684 Descending New York TRACON
12:31PM 41.2000 -73.5667 166° South 236 272 2,800 -579 Descending New York TRACON
12:32PM 41.1333 -73.5500 169° South 224 258 2,200 -350 Descending New York TRACON
12:33PM 41.0833 -73.5500 180° South 203 234 2,100 -100 Descending New York TRACON
12:34PM 41.0333 -73.5833 207° Southwest 191 220 2,000 -100 Descending New York TRACON
12:35PM 41.0167 -73.6333 246° West 186 214 1,900 -500 Descending New York TRACON
12:36PM 41.0333 -73.6833 294° West 154 177 1,000 -900 Descending New York TRACON
12:38PM 41.0667 -73.7000 315° West  Level FlightAware Approximate
12:45PM 41.0669 -73.7076 315° West  Level Estimated